Flight Track Log - Related Links

Times and Time Zones

All times are in EDT time to prevent confusion due to time zone crossing. See the EJA839 flight status page for this flight to view local times or setup timezone preferences in your user account.

Time Position Orientation Groundspeed Altitude Reporting Facility
EDT Latitude Longitude Course Direction KTS MPH feet Rate Location/Type
Fri 05:12:39 PM 40.7833 -74.4333 194° South 185 213 1,300  Level New York TRACON
Fri 05:14:40 PM 40.6714 -74.3717 157° South 212 244 4,800 2,320 Climbing New York Center
Fri 05:15:40 PM 40.6225 -74.3336 149° Southeast 255 293 8,300 3,669 Climbing New York Center
Fri 05:16:41 PM 40.5553 -74.3492 190° South 226 260 12,200 2,557 Climbing New York Center
Fri 05:17:42 PM 40.4756 -74.3014 155° Southeast 285 328 13,500 1,664 Climbing New York Center
Fri 05:18:00 PM 40.2835 -74.6765 194° South  Level Estimated
Fri 05:18:40 PM 40.3900 -74.2289 147° Southeast 342 394 15,500  Level New York Center
Fri 05:19:41 PM 40.2958 -74.1753 157° South 372 428 17,000 744 Climbing New York Center
Fri 05:20:41 PM 40.1994 -74.1978 190° South 351 404 17,000  Level New York Center
Fri 05:21:42 PM 40.1006 -74.2253 192° South 356 410 17,000 400 Level New York Center
Fri 05:22:56 PM 39.9853 -74.2700 197° South 362 417 17,900 1,099 Climbing Washington Center
Fri 05:23:53 PM 39.9028 -74.3475 216° Southwest 356 410 19,400 1,641 Climbing Washington Center
Fri 05:24:53 PM 39.8225 -74.4272 217° Southwest 363 418 21,100 1,525 Climbing Washington Center
Fri 05:25:55 PM 39.7503 -74.5200 225° Southwest 368 423 22,500 1,300 Climbing Washington Center
Fri 05:26:53 PM 39.6783 -74.6156 226° Southwest 374 430 23,700 1,210 Climbing Washington Center
Fri 05:27:54 PM 39.6042 -74.7161 226° Southwest 379 436 24,900 1,140 Climbing Washington Center
Fri 05:28:54 PM 39.5275 -74.8139 225° Southwest 384 442 26,000 1,279 Climbing Washington Center
Fri 05:29:56 PM 39.4300 -74.8794 207° Southwest 389 448 27,500 1,550 Climbing Washington Center
Fri 05:30:54 PM 39.3303 -74.9394 205° Southwest 394 453 29,100 1,563 Climbing Washington Center
Fri 05:31:55 PM 39.2306 -74.9994 205° Southwest 399 459 30,600 1,488 Climbing Washington Center
Fri 05:32:55 PM 39.1308 -75.0564 204° Southwest 399 459 32,100 1,438 Climbing Washington Center
Fri 05:33:56 PM 39.0292 -75.1161 205° Southwest 399 459 33,500 1,412 Climbing Washington Center
Fri 05:34:54 PM 38.9314 -75.1700 203° Southwest 399 459 34,900 1,210 Climbing Washington Center
Fri 05:35:55 PM 38.8294 -75.2347 206° Southwest 399 459 35,900 555 Climbing Washington Center
Fri 05:36:53 PM 38.7253 -75.2911 203° Southwest 399 459 36,000 407 Climbing Washington Center
Fri 05:37:53 PM 38.6192 -75.3525 204° Southwest 410 472 36,700 1,041 Climbing Washington Center
Fri 05:38:54 PM 38.5169 -75.4111 204° Southwest 410 472 38,100 1,339 Climbing Washington Center
Fri 05:39:54 PM 38.4192 -75.4644 203° Southwest 405 466 39,400 958 Climbing Washington Center
Fri 05:40:53 PM 38.3253 -75.5308 209° Southwest 393 452 40,000 303 Climbing Washington Center
Fri 05:41:53 PM 38.2378 -75.6075 215° Southwest 388 447 40,000  Level Washington Center
Fri 05:42:54 PM 38.1586 -75.6867 218° Southwest 396 456 40,000  Level Washington Center
Fri 05:43:55 PM 38.0686 -75.7683 216° Southwest 401 461 40,000  Level Washington Center
Fri 05:44:53 PM 37.9789 -75.8525 216° Southwest 401 461 40,000  Level Washington Center
Fri 05:45:53 PM 37.8892 -75.9364 216° Southwest 406 467 40,000  Level Washington Center
Fri 05:46:54 PM 37.7992 -76.0228 217° Southwest 406 467 40,000  Level Washington Center
Fri 05:47:55 PM 37.7028 -76.1167 218° Southwest 406 467 40,000  Level Washington Center
Fri 05:48:53 PM 37.6233 -76.1844 214° Southwest 401 461 40,000  Level Washington Center
Fri 05:49:53 PM 37.5331 -76.2675 216° Southwest 401 461 40,000  Level Washington Center
Fri 05:50:55 PM 37.4450 -76.3478 216° Southwest 401 461 40,000  Level Washington Center
Fri 05:51:55 PM 37.3569 -76.4281 216° Southwest 401 461 40,000  Level Washington Center
Fri 05:52:53 PM 37.2686 -76.5078 216° Southwest 401 461 40,000  Level Washington Center
Fri 05:53:53 PM 37.1825 -76.5878 217° Southwest 401 461 40,000  Level Washington Center
Fri 05:54:54 PM 37.0922 -76.6672 215° Southwest 401 461 40,000  Level Washington Center
Fri 05:55:55 PM 37.0058 -76.7467 216° Southwest 401 461 40,000  Level Washington Center
Fri 05:56:53 PM 36.9092 -76.8128 209° Southwest 401 461 40,000  Level Washington Center
Fri 05:57:53 PM 36.8064 -76.8631 201° Southwest 401 461 40,000  Level Washington Center
Fri 05:58:54 PM 36.7017 -76.9156 202° Southwest 401 461 40,000  Level Washington Center
Fri 05:59:54 PM 36.5989 -76.9658 201° Southwest 401 461 40,000  Level Washington Center
Fri 06:00:53 PM 36.4961 -77.0156 201° Southwest 401 461 40,000  Level Washington Center
Fri 06:01:54 PM 36.3806 -77.0753 203° Southwest 401 461 40,000  Level Washington Center
Fri 06:02:54 PM 36.2756 -77.1250 201° Southwest 401 461 40,000  Level Washington Center
Fri 06:03:55 PM 36.1811 -77.1694 201° Southwest 401 461 40,000  Level Washington Center
Fri 06:04:55 PM 36.0697 -77.2239 202° Southwest 396 456 40,000  Level Washington Center
Fri 06:05:53 PM 35.9647 -77.2731 201° Southwest 396 456 40,000  Level Washington Center
Fri 06:06:53 PM 35.8619 -77.3272 203° Southwest 401 461 40,000  Level Washington Center
Fri 06:07:54 PM 35.7528 -77.3733 199° South 406 467 40,000  Level Washington Center
Fri 06:08:55 PM 35.6603 -77.4200 202° Southwest 406 467 40,000  Level Washington Center
Fri 06:09:55 PM 35.5550 -77.4711 202° Southwest 406 467 40,000  Level Washington Center
Fri 06:10:56 PM 35.4681 -77.5506 217° Southwest 406 467 40,000  Level Washington Center
Fri 06:11:53 PM 35.3853 -77.6378 221° Southwest 401 461 40,000  Level Washington Center
Fri 06:12:54 PM 35.3003 -77.7247 220° Southwest 401 461 40,000  Level Washington Center
Fri 06:13:54 PM 35.2153 -77.8089 219° Southwest 401 461 40,000  Level Washington Center
Fri 06:14:56 PM 35.1303 -77.8903 218° Southwest 401 461 40,000  Level Washington Center
Fri 06:15:54 PM 35.0453 -77.9742 219° Southwest 401 461 40,000 242 Level Washington Center
Fri 06:19:04 PM 34.7847 -78.2292 219° Southwest 377 434 41,000 240 Climbing Jacksonville Center
Fri 06:20:04 PM 34.7008 -78.3244 223° Southwest 382 440 41,000  Level Jacksonville Center
Fri 06:21:04 PM 34.6222 -78.4019 219° Southwest 369 425 41,000  Level Jacksonville Center
Fri 06:22:04 PM 34.5453 -78.4664 215° Southwest 374 430 41,000  Level Jacksonville Center
Fri 06:23:04 PM 34.4647 -78.5536 222° Southwest 385 443 41,000  Level Jacksonville Center
Fri 06:24:04 PM 34.3839 -78.6281 217° Southwest 385 443 41,000  Level Jacksonville Center
Fri 06:25:04 PM 34.3011 -78.7100 219° Southwest 385 443 41,000  Level Jacksonville Center
Fri 06:26:04 PM 34.2183 -78.7894 218° Southwest 390 449 41,000  Level Jacksonville Center
Fri 06:27:04 PM 34.1353 -78.8686 218° Southwest 390 449 41,000  Level Jacksonville Center
Fri 06:28:04 PM 34.0503 -78.9500 218° Southwest 390 449 41,000  Level Jacksonville Center
Fri 06:29:04 PM 33.9672 -79.0289 218° Southwest 390 449 41,000  Level Jacksonville Center
Fri 06:30:04 PM 33.8800 -79.1128 219° Southwest 390 449 41,000  Level Jacksonville Center
Fri 06:31:04 PM 33.7947 -79.1914 217° Southwest 395 455 41,000  Level Jacksonville Center
Fri 06:32:04 PM 33.7094 -79.2750 219° Southwest 389 448 41,000  Level Jacksonville Center
Fri 06:33:04 PM 33.6219 -79.3558 218° Southwest 389 448 41,000  Level Jacksonville Center
Fri 06:34:04 PM 33.5367 -79.4364 218° Southwest 394 453 41,000  Level Jacksonville Center
Fri 06:35:04 PM 33.4492 -79.5194 218° Southwest 394 453 41,000  Level Jacksonville Center
Fri 06:36:04 PM 33.3614 -79.6000 217° Southwest 399 459 41,000  Level Jacksonville Center
Fri 06:37:04 PM 33.2739 -79.6828 218° Southwest 404 465 41,000  Level Jacksonville Center
Fri 06:38:04 PM 33.1883 -79.7628 218° Southwest 404 465 41,000  Level Jacksonville Center
Fri 06:39:04 PM 33.0983 -79.8453 218° Southwest 404 465 41,000  Level Jacksonville Center
Fri 06:40:04 PM 33.0106 -79.9275 218° Southwest 404 465 41,000  Level Jacksonville Center
Fri 06:41:04 PM 32.9228 -80.0094 218° Southwest 404 465 41,000  Level Jacksonville Center
Fri 06:42:04 PM 32.8283 -80.0817 213° Southwest 409 471 41,000  Level Jacksonville Center
Fri 06:43:04 PM 32.7442 -80.1461 213° Southwest 409 471 41,000  Level Jacksonville Center
Fri 06:44:04 PM 32.6497 -80.2181 213° Southwest 409 471 41,000  Level Jacksonville Center
Fri 06:45:04 PM 32.5531 -80.2875 211° Southwest 409 471 41,000  Level Jacksonville Center
Fri 06:46:04 PM 32.4583 -80.3517 210° Southwest 409 471 41,000  Level Jacksonville Center
Fri 06:47:04 PM 32.3528 -80.4014 202° Southwest 403 464 41,000  Level Jacksonville Center
Fri 06:48:04 PM 32.2453 -80.4486 200° South 408 470 41,000 -300 Level Jacksonville Center
Fri 06:49:04 PM 32.1333 -80.4981 201° Southwest 402 463 40,400 -950 Descending Jacksonville Center
Fri 06:50:04 PM 32.0258 -80.5450 200° South 407 468 39,100 -1,150 Descending Jacksonville Center
Fri 06:51:04 PM 31.9286 -80.5892 201° Southwest 416 479 38,100 -550 Descending Jacksonville Center
Fri 06:52:04 PM 31.8103 -80.6411 200° South 410 472 38,000 -700 Descending Jacksonville Center
Fri 06:53:04 PM 31.7108 -80.6850 201° Southwest 420 483 36,700 -1,200 Descending Jacksonville Center
Fri 06:54:04 PM 31.5969 -80.7339 200° South 430 495 35,600 -850 Descending Jacksonville Center
Fri 06:55:04 PM 31.4789 -80.7878 201° Southwest 424 488 35,000 -300 Descending Jacksonville Center
Fri 06:56:04 PM 31.3814 -80.8289 200° South 424 488 35,000  Level Jacksonville Center
Fri 06:57:04 PM 31.2717 -80.8775 201° Southwest 424 488 35,000  Level Jacksonville Center
Fri 06:58:04 PM 31.1639 -80.9283 202° Southwest 431 496 35,000  Level Jacksonville Center
Fri 06:59:04 PM 31.0517 -80.9769 200° South 426 490 35,000  Level Jacksonville Center
Fri 07:00:04 PM 30.9439 -81.0228 200° South 426 490 35,000  Level Jacksonville Center
Fri 07:01:04 PM 30.8319 -81.0708 200° South 426 490 35,000  Level Jacksonville Center
Fri 07:02:04 PM 30.7219 -81.1164 200° South 426 490 35,000  Level Jacksonville Center
Fri 07:03:04 PM 30.6053 -81.1525 195° South 426 490 35,000  Level Jacksonville Center
Fri 07:04:04 PM 30.4822 -81.1475 178° South 434 499 35,000  Level Jacksonville Center
Fri 07:05:04 PM 30.3569 -81.1450 179° South 440 506 35,000  Level Jacksonville Center
Fri 07:06:04 PM 30.2272 -81.1328 175° South 451 519 35,000  Level Jacksonville Center
Fri 07:07:04 PM 30.1056 -81.0919 164° South 461 531 35,000  Level Jacksonville Center
Fri 07:08:04 PM 29.9775 -81.0511 165° South 461 531 35,000  Level Jacksonville Center
Fri 07:09:04 PM 29.8558 -81.0056 162° South 461 531 35,000  Level Jacksonville Center
Fri 07:10:04 PM 29.7322 -80.9647 164° South 467 537 35,000 -500 Level Jacksonville Center
Fri 07:11:04 PM 29.6083 -80.9219 163° South 467 537 34,000 -1,700 Descending Jacksonville Center
Fri 07:12:04 PM 29.4761 -80.8792 164° South 461 531 31,600 -2,400 Descending Jacksonville Center
Fri 07:13:04 PM 29.3586 -80.8364 162° South 455 524 29,200 -2,400 Descending Jacksonville Center
Fri 07:14:04 PM 29.2369 -80.7961 164° South 455 524 26,800 -2,382 Descending Jacksonville Center
Fri 07:15:15 PM 29.0950 -80.7489 164° South 453 521 24,000 -2,153 Descending Miami Center
Fri 07:16:15 PM 28.9833 -80.7094 163° South 441 507 22,100 -1,000 Descending Miami Center
Fri 07:17:15 PM 28.8861 -80.6775 164° South 419 482 22,000 -50 Descending Miami Center
Fri 07:18:15 PM 28.7767 -80.6406 164° South 408 470 22,000  Level Miami Center
Fri 07:19:15 PM 28.6567 -80.6011 164° South 408 470 22,000  Level Miami Center
Fri 07:20:15 PM 28.5450 -80.5619 163° South 413 475 22,000  Level Miami Center
Fri 07:21:15 PM 28.4353 -80.5253 164° South 413 475 22,000  Level Miami Center
Fri 07:22:15 PM 28.3339 -80.4914 164° South 413 475 22,000  Level Miami Center
Fri 07:23:15 PM 28.2222 -80.4547 164° South 413 475 22,000 -550 Level Miami Center
Fri 07:24:15 PM 28.1022 -80.4133 163° South 413 475 20,900 -1,600 Descending Miami Center
Fri 07:25:15 PM 27.9967 -80.3794 164° South 406 467 18,800 -2,050 Descending Miami Center
Fri 07:26:15 PM 27.8953 -80.3456 164° South 396 456 16,800 -1,900 Descending Miami Center
Fri 07:27:15 PM 27.8081 -80.3172 164° South 369 425 15,000 -1,800 Descending Miami Center
Fri 07:28:15 PM 27.7150 -80.2861 164° South 356 410 13,200 -1,950 Descending Miami Center
Fri 07:29:15 PM 27.6156 -80.2528 163° South 347 399 11,100 -1,800 Descending Miami Center
Fri 07:30:15 PM 27.5347 -80.2269 164° South 323 372 9,600 -1,550 Descending Miami Center
Fri 07:31:15 PM 27.4561 -80.1989 162° South 301 346 8,000 -1,750 Descending Miami Center
Fri 07:32:15 PM 27.3875 -80.1783 165° South 289 333 6,100 -1,800 Descending Miami Center
Fri 07:33:15 PM 27.3131 -80.1528 163° South 282 325 4,400 -1,100 Descending Miami Center
Fri 07:34:15 PM 27.2494 -80.1975 212° Southwest 245 282 3,900 -1,150 Descending Miami Center
Fri 07:35:15 PM 27.2353 -80.2697 258° West 231 266 2,100 -1,350 Descending Miami Center
Fri 07:36:15 PM 27.1975 -80.2778 191° South 155 178 1,200 -800 Descending Miami Center
Fri 07:37:15 PM 27.1792 -80.2586 137° Southeast 90 104 500 -700 Descending Miami Center

Login

Don't have an account? Register now (free) for customized features, flight alerts, and more!